Time;durP1;ratioP1;P1;durP2;ratioP2;P2;SDS_P1;SDS_P2;PMS_P1;PMS_P2;Temp;Humidity;BMP_temperature;BMP_pressure;BME280_temperature;BME280_humidity;BME280_pressure;Samples;Min_cycle;Max_cycle;Signal;HPM_P1;HPM_P2
2022/04/12 00:00:37;;;;;;;27.38;15.60;;;;;;;6.86;100.00;162359.22;5030265;28;20049;-60
2022/04/12 00:03:03;;;;;;;14.80;9.75;;;;;;;6.82;100.00;162348.41;5029385;28;20076;-60
2022/04/12 00:05:28;;;;;;;16.65;11.45;;;;;;;6.79;100.00;162340.38;5030940;28;20040;-59
2022/04/12 00:07:54;;;;;;;31.63;14.98;;;;;;;6.67;100.00;162310.72;5028332;28;20053;-59
2022/04/12 00:10:19;;;;;;;16.27;10.30;;;;;;;6.71;100.00;162318.81;5031048;28;20094;-59
2022/04/12 00:12:46;;;;;;;13.85;9.40;;;;;;;6.65;100.00;162305.38;5029558;28;20624;-59
2022/04/12 00:15:11;;;;;;;18.88;9.82;;;;;;;6.57;100.00;162283.81;5030393;28;20025;-60
2022/04/12 00:20:26;;;;;;;13.10;9.90;;;;;;;6.57;100.00;162282.44;5031054;28;20044;-59
2022/04/12 00:22:55;;;;;;;25.35;14.23;;;;;;;6.50;100.00;162264.97;5029321;28;20068;-59
2022/04/12 00:25:22;;;;;;;10.75;8.48;;;;;;;6.50;100.00;162264.97;5030659;28;20108;-59
2022/04/12 00:27:49;;;;;;;15.80;11.55;;;;;;;6.45;100.00;162251.47;5029007;28;20033;-60
2022/04/12 00:30:15;;;;;;;13.88;11.65;;;;;;;6.43;100.00;162246.13;5030456;28;20428;-60
2022/04/12 00:32:41;;;;;;;14.40;10.77;;;;;;;6.40;100.00;162238.03;5029200;28;20037;-57
2022/04/12 00:35:07;;;;;;;11.93;9.18;;;;;;;6.35;100.00;162227.28;5030794;28;20063;-58
2022/04/12 00:37:33;;;;;;;16.10;11.95;;;;;;;6.32;100.00;162219.19;5028920;28;20037;-59
2022/04/12 00:39:58;;;;;;;19.13;12.32;;;;;;;6.30;100.00;162212.47;5030809;28;20440;-59
2022/04/12 00:42:23;;;;;;;17.48;10.98;;;;;;;6.25;100.00;162200.34;5029313;28;20065;-59
2022/04/12 00:44:49;;;;;;;34.90;18.60;;;;;;;6.18;100.00;162181.50;5030355;28;20032;-59
2022/04/12 00:47:14;;;;;;;14.45;9.55;;;;;;;6.15;100.00;162173.41;5028730;28;20100;-59
2022/04/12 00:49:40;;;;;;;18.30;12.77;;;;;;;6.13;100.00;162168.06;5030658;28;20112;-59
2022/04/12 00:52:09;;;;;;;28.08;15.63;;;;;;;6.06;100.00;162149.22;5029072;28;20060;-59
2022/04/12 00:54:37;;;;;;;25.10;13.07;;;;;;;6.03;100.00;162142.50;5030487;28;20037;-59
2022/04/12 00:57:04;;;;;;;24.90;12.07;;;;;;;5.96;100.00;162124.94;5029323;28;20041;-59
2022/04/12 00:59:34;;;;;;;18.55;10.80;;;;;;;5.89;100.00;162106.09;5030202;28;20117;-59
2022/04/12 01:02:05;;;;;;;21.80;13.88;;;;;;;5.84;100.00;162093.97;5028745;28;20049;-59
2022/04/12 01:04:31;;;;;;;44.22;20.40;;;;;;;5.79;100.00;162079.16;5030719;28;20433;-58
2022/04/12 01:06:57;;;;;;;29.13;15.50;;;;;;;5.72;100.00;162063.03;5028724;28;20046;-58
2022/04/12 01:09:26;;;;;;;19.13;11.70;;;;;;;5.61;100.00;162033.47;5030246;28;20096;-59
2022/04/12 01:11:51;;;;;;;;;;;;;;;5.51;100.00;162006.53;5029422;28;20049;-59
2022/04/12 01:14:16;;;;;;;17.45;11.32;;;;;;;5.45;100.00;161990.41;5030073;28;19908;-59
2022/04/12 01:16:42;;;;;;;16.67;12.70;;;;;;;5.46;100.00;161993.09;5032330;28;20087;-59
2022/04/12 01:19:07;;;;;;;28.40;19.98;;;;;;;5.45;100.00;161990.41;5034196;28;20021;-60
2022/04/12 01:21:39;;;;;;;12.25;9.45;;;;;;;5.37;100.00;161971.56;5032414;28;20037;-60
2022/04/12 01:24:06;;;;;;;17.20;14.02;;;;;;;5.32;100.00;161958.13;5033842;28;20052;-59
2022/04/12 01:26:32;;;;;;;17.65;11.02;;;;;;;5.27;100.00;161944.66;5032056;28;20041;-60
2022/04/12 01:28:58;;;;;;;25.15;12.15;;;;;;;5.24;100.00;161936.59;5034163;28;20048;-59
2022/04/12 01:31:27;;;;;;;12.23;10.82;;;;;;;5.28;100.00;161947.34;5031826;28;20037;-60
2022/04/12 01:33:53;;;;;;;15.38;13.30;;;;;;;5.22;100.00;161931.19;5033928;28;20041;-59
2022/04/12 01:36:19;;;;;;;14.07;10.00;;;;;;;5.19;100.00;161923.13;5032288;28;20034;-59
2022/04/12 01:38:44;;;;;;;13.35;10.65;;;;;;;5.17;100.00;161917.78;5033329;28;20079;-59
2022/04/12 01:41:09;;;;;;;12.70;10.23;;;;;;;5.14;100.00;161909.69;5032468;28;20057;-59
2022/04/12 01:43:35;;;;;;;17.38;11.43;;;;;;;5.16;100.00;161915.06;5033384;28;20044;-58
2022/04/12 01:46:00;;;;;;;12.85;10.55;;;;;;;5.18;100.00;161920.41;5031478;28;20033;-58
2022/04/12 01:48:26;;;;;;;15.73;11.10;;;;;;;5.21;100.00;161929.81;5033315;28;20420;-59
2022/04/12 01:50:51;;;;;;;13.38;10.32;;;;;;;5.22;100.00;161932.53;5031898;28;20026;-58
2022/04/12 01:53:16;;;;;;;21.00;14.35;;;;;;;5.21;100.00;161929.81;5032286;28;20052;-59
2022/04/12 01:55:42;;;;;;;14.00;11.32;;;;;;;5.20;100.00;161925.81;5033465;28;20025;-58
2022/04/12 01:58:07;;;;;;;12.30;10.63;;;;;;;5.19;100.00;161923.13;5031863;28;20033;-58
2022/04/12 02:00:35;;;;;;;16.55;11.45;;;;;;;5.15;100.00;161912.38;5032687;28;20064;-59
2022/04/12 02:03:00;;;;;;;13.68;9.20;;;;;;;5.14;100.00;161909.69;5031855;28;20060;-58
2022/04/12 02:05:25;;;;;;;11.43;10.07;;;;;;;5.10;100.00;161898.94;5033006;28;20431;-58
2022/04/12 02:07:51;;;;;;;13.15;10.18;;;;;;;5.03;100.00;161882.75;5030880;28;20497;-58
2022/04/12 02:10:19;;;;;;;14.07;9.82;;;;;;;5.04;100.00;161885.47;5033078;28;20400;-59
2022/04/12 02:12:45;;;;;;;10.93;9.80;;;;;;;5.02;100.00;161878.75;5031654;28;20080;-59
2022/04/12 02:15:10;;;;;;;12.63;10.15;;;;;;;5.03;100.00;161882.75;5032397;28;20358;-58
2022/04/12 02:17:35;;;;;;;12.93;9.48;;;;;;;4.99;100.00;161870.69;5031298;28;20044;-58
2022/04/12 02:20:01;;;;;;;14.40;10.40;;;;;;;4.97;100.00;161866.63;5032824;28;20033;-58
2022/04/12 02:22:26;;;;;;;12.98;9.98;;;;;;;5.05;100.00;161888.16;5030888;28;20037;-58
2022/04/12 02:24:51;;;;;;;13.40;11.05;;;;;;;5.10;100.00;161898.94;5032806;28;20037;-58
2022/04/12 02:27:17;;;;;;;11.05;8.93;;;;;;;5.07;100.00;161893.53;5030536;28;20033;-59
2022/04/12 02:29:42;;;;;;;13.35;10.60;;;;;;;5.08;100.00;161894.88;5032463;28;20029;-58
2022/04/12 02:32:08;;;;;;;11.65;9.20;;;;;;;5.06;100.00;161889.53;5031293;28;20512;-59
2022/04/12 02:34:33;;;;;;;12.02;9.95;;;;;;;5.03;100.00;161881.44;5032667;28;20667;-59
2022/04/12 02:36:59;;;;;;;15.57;10.35;;;;;;;5.04;100.00;161885.47;5030901;28;20033;-58
2022/04/12 02:39:24;;;;;;;14.10;10.52;;;;;;;5.01;100.00;161877.41;5032189;28;20076;-59
2022/04/12 02:41:50;;;;;;;11.23;9.82;;;;;;;4.97;100.00;161865.31;5030979;28;20048;-59
2022/04/12 02:44:16;;;;;;;10.52;9.43;;;;;;;5.00;100.00;161873.34;5031910;28;20048;-60
2022/04/12 02:46:41;;;;;;;12.38;10.77;;;;;;;4.91;100.00;161851.81;5030569;28;20453;-59
2022/04/12 02:49:07;;;;;;;13.57;9.43;;;;;;;4.88;100.00;161842.41;5032319;28;20022;-59
2022/04/12 02:51:32;;;;;;;11.65;10.45;;;;;;;4.83;100.00;161828.97;5030352;28;20037;-59
2022/04/12 02:53:58;;;;;;;13.70;10.88;;;;;;;4.79;100.00;161818.25;5032334;28;20159;-57
2022/04/12 02:56:23;;;;;;;12.35;9.98;;;;;;;4.73;100.00;161804.75;5030505;28;20099;-59
2022/04/12 02:58:48;;;;;;;12.65;9.13;;;;;;;4.70;100.00;161796.72;5031990;28;20025;-58
2022/04/12 03:01:14;;;;;;;12.43;8.82;;;;;;;4.70;100.00;161796.72;5030048;28;20045;-59
2022/04/12 03:03:39;;;;;;;11.88;10.77;;;;;;;4.74;100.00;161807.47;5032039;28;20022;-59
2022/04/12 03:06:04;;;;;;;11.98;10.13;;;;;;;4.75;100.00;161808.84;5030192;28;20042;-59
2022/04/12 03:08:30;;;;;;;11.68;10.45;;;;;;;4.71;100.00;161798.06;5031940;28;20033;-59
2022/04/12 03:10:55;;;;;;;9.55;8.70;;;;;;;4.69;100.00;161794.03;5030364;28;20433;-59
2022/04/12 03:13:21;;;;;;;16.05;9.65;;;;;;;4.67;100.00;161788.63;5031333;28;20028;-58
2022/04/12 03:15:46;;;;;;;13.55;10.00;;;;;;;4.70;100.00;161796.72;5030601;28;20045;-58
2022/04/12 03:18:11;;;;;;;10.82;9.82;;;;;;;4.74;100.00;161807.47;5031837;28;20022;-58
2022/04/12 03:20:37;;;;;;;12.98;10.45;;;;;;;4.72;100.00;161802.13;5031325;28;20021;-58
2022/04/12 03:23:02;;;;;;;13.98;10.25;;;;;;;4.78;100.00;161815.56;5030295;28;20041;-59
2022/04/12 03:25:27;;;;;;;15.00;10.95;;;;;;;4.79;100.00;161818.25;5031311;28;20087;-59
2022/04/12 03:27:53;;;;;;;11.60;10.07;;;;;;;4.81;100.00;161823.59;5029717;28;20050;-59
2022/04/12 03:30:18;;;;;;;10.90;8.75;;;;;;;4.81;100.00;161824.97;5031549;28;20029;-59
2022/04/12 03:32:43;;;;;;;12.15;8.80;;;;;;;4.85;100.00;161834.38;5030233;28;20112;-59
2022/04/12 03:35:09;;;;;;;16.00;11.73;;;;;;;4.85;100.00;161834.38;5031250;28;20022;-59
2022/04/12 03:37:34;;;;;;;11.88;9.43;;;;;;;4.82;100.00;161826.28;5029305;28;20039;-59
2022/04/12 03:40:00;;;;;;;16.83;10.35;;;;;;;4.79;100.00;161818.25;5031099;28;20055;-59
2022/04/12 03:42:25;;;;;;;11.98;10.40;;;;;;;4.79;100.00;161819.56;5029451;28;20045;-59
2022/04/12 03:44:51;;;;;;;11.43;8.50;;;;;;;4.77;100.00;161814.19;5031552;28;20481;-59
2022/04/12 03:47:17;;;;;;;16.65;9.05;;;;;;;4.72;100.00;161802.13;5029331;28;20037;-59
2022/04/12 03:49:43;;;;;;;13.32;9.63;;;;;;;4.72;100.00;161802.13;5031297;28;20075;-59
2022/04/12 03:52:09;;;;;;;14.18;9.88;;;;;;;4.74;100.00;161806.13;5029810;28;20037;-60
2022/04/12 03:54:35;;;;;;;15.90;8.95;;;;;;;4.69;100.00;161794.03;5030979;28;20017;-59
2022/04/12 03:57:00;;;;;;;12.07;10.57;;;;;;;4.72;100.00;161800.75;5029983;28;20382;-59
2022/04/12 03:59:26;;;;;;;22.55;16.75;;;;;;;4.74;100.00;161807.47;5030606;28;20048;-59
2022/04/12 04:01:51;;;;;;;12.05;10.32;;;;;;;4.75;100.00;161808.84;5029517;28;20057;-59
2022/04/12 04:04:17;;;;;;;17.27;12.10;;;;;;;4.80;100.00;161822.25;5030980;28;20025;-59
2022/04/12 04:06:42;;;;;;;11.65;10.27;;;;;;;4.76;100.00;161812.84;5029431;28;20405;-59
2022/04/12 04:09:07;;;;;;;9.80;8.93;;;;;;;4.76;100.00;161812.84;5031213;28;20473;-59
2022/04/12 04:11:33;;;;;;;15.38;11.00;;;;;;;4.73;100.00;161804.75;5029601;28;20041;-57
2022/04/12 04:14:00;;;;;;;14.98;11.38;;;;;;;4.68;100.00;161791.34;5030020;28;20029;-57
2022/04/12 04:16:26;;;;;;;12.60;8.02;;;;;;;4.67;100.00;161788.63;5029465;28;20232;-57
2022/04/12 04:18:51;;;;;;;12.32;9.93;;;;;;;4.63;100.00;161776.53;5030310;28;20029;-57
2022/04/12 04:21:16;;;;;;;11.35;9.70;;;;;;;4.67;100.00;161787.31;5028656;28;20512;-58
2022/04/12 04:23:42;;;;;;;14.77;11.52;;;;;;;4.62;100.00;161775.22;5030396;28;20036;-58
2022/04/12 04:26:07;;;;;;;11.68;8.52;;;;;;;4.61;100.00;161772.50;5029210;28;20046;-57
2022/04/12 04:28:34;;;;;;;13.02;9.68;;;;;;;4.60;100.00;161769.81;5030306;28;20328;-57
2022/04/12 04:30:59;;;;;;;14.07;10.10;;;;;;;4.59;100.00;161767.13;5029691;28;20112;-57
2022/04/12 04:33:25;;;;;;;16.95;8.95;;;;;;;4.57;100.00;161761.78;5030552;28;20014;-57
2022/04/12 04:35:51;;;;;;;10.40;9.27;;;;;;;4.56;100.00;161759.09;5029001;28;20041;-57
2022/04/12 04:38:16;;;;;;;11.23;9.90;;;;;;;4.54;100.00;161753.69;5030061;28;20615;-57
2022/04/12 04:40:42;;;;;;;12.80;9.63;;;;;;;4.54;100.00;161753.69;5030967;28;20036;-57
2022/04/12 04:43:08;;;;;;;11.63;9.95;;;;;;;4.50;100.00;161744.28;5028834;28;20037;-57
2022/04/12 04:45:34;;;;;;;14.55;9.73;;;;;;;4.46;100.00;161733.56;5030613;28;20034;-57
2022/04/12 04:48:02;;;;;;;13.73;10.10;;;;;;;4.45;100.00;161732.19;5029455;28;20042;-57
2022/04/12 04:50:33;;;;;;;12.90;10.03;;;;;;;4.44;100.00;161728.16;5031566;28;20481;-57
2022/04/12 04:53:05;;;;;;;15.73;10.45;;;;;;;4.44;100.00;161728.16;5033137;28;20460;-57
2022/04/12 04:55:31;;;;;;;10.90;9.55;;;;;;;4.44;100.00;161728.16;5034533;28;20119;-57
2022/04/12 04:57:58;;;;;;;11.38;10.07;;;;;;;4.45;100.00;161732.19;5032681;28;20407;-57
2022/04/12 05:00:25;;;;;;;10.52;8.38;;;;;;;4.45;100.00;161732.19;5034130;28;20463;-57
2022/04/12 05:02:53;;;;;;;18.38;11.00;;;;;;;4.50;100.00;161742.97;5033038;28;20099;-57
2022/04/12 05:05:19;;;;;;;12.95;10.95;;;;;;;4.53;100.00;161751.00;5033753;28;20029;-57
2022/04/12 05:07:46;;;;;;;11.90;9.68;;;;;;;4.50;100.00;161742.97;5032677;28;20049;-57
2022/04/12 05:10:14;;;;;;;10.10;9.07;;;;;;;4.56;100.00;161760.41;5033899;28;20488;-57
2022/04/12 05:12:40;;;;;;;11.80;10.52;;;;;;;4.63;100.00;161777.91;5032048;28;20048;-57
2022/04/12 05:15:05;;;;;;;13.05;9.18;;;;;;;4.69;100.00;161792.72;5033961;28;20021;-57
2022/04/12 05:17:31;;;;;;;10.65;9.55;;;;;;;4.75;100.00;161810.16;5031769;28;20041;-57
2022/04/12 05:19:57;;;;;;;10.32;9.30;;;;;;;4.83;100.00;161828.97;5033026;28;20474;-57
2022/04/12 05:22:23;;;;;;;11.95;10.60;;;;;;;4.89;100.00;161846.47;5031600;28;20052;-57
2022/04/12 05:24:48;;;;;;;11.00;8.95;;;;;;;5.01;100.00;161877.41;5033737;28;20377;-57
2022/04/12 05:27:14;;;;;;;9.13;8.30;;;;;;;5.08;100.00;161896.25;5031359;28;20049;-57
2022/04/12 05:29:39;;;;;;;12.32;9.15;;;;;;;5.18;100.00;161920.41;5033378;28;20116;-57
2022/04/12 05:32:05;;;;;;;18.33;10.95;;;;;;;5.21;100.00;161928.50;5032089;28;20041;-57
2022/04/12 05:34:31;;;;;;;11.07;9.40;;;;;;;5.33;100.00;161960.78;5033013;28;20024;-57
2022/04/12 05:36:56;;;;;;;9.27;8.38;;;;;;;5.44;100.00;161987.69;5031923;28;20085;-57
2022/04/12 05:39:22;;;;;;;9.57;8.65;;;;;;;5.53;100.00;162011.94;5032868;28;20018;-57
2022/04/12 05:41:47;;;;;;;12.35;9.20;;;;;;;5.65;100.00;162044.19;5031517;28;20037;-57
2022/04/12 05:44:12;;;;;;;11.75;10.63;;;;;;;5.70;100.00;162057.63;5033304;28;20025;-58
2022/04/12 05:46:38;;;;;;;17.95;9.20;;;;;;;5.78;100.00;162076.47;5031211;28;20496;-58
2022/04/12 05:49:03;;;;;;;10.20;9.07;;;;;;;5.88;100.00;162103.41;5032398;28;20025;-58
2022/04/12 05:51:28;;;;;;;15.82;8.73;;;;;;;6.03;100.00;162143.84;5031362;28;20096;-57
2022/04/12 05:53:54;;;;;;;12.73;9.55;;;;;;;6.15;100.00;162173.41;5033104;28;20091;-55
2022/04/12 05:56:19;;;;;;;13.40;9.93;;;;;;;6.30;100.00;162213.78;5031466;28;20044;-54
2022/04/12 05:58:44;;;;;;;13.20;9.15;;;;;;;6.42;100.00;162243.44;5033304;28;20025;-54
2022/04/12 06:01:10;;;;;;;12.32;8.85;;;;;;;6.48;100.00;162259.59;5031250;28;20060;-54
2022/04/12 06:03:35;;;;;;;13.63;8.13;;;;;;;6.57;100.00;162283.81;5032454;28;20025;-54
2022/04/12 06:06:00;;;;;;;14.15;9.82;;;;;;;6.68;100.00;162312.09;5031946;28;20492;-54
2022/04/12 06:08:26;;;;;;;21.70;12.18;;;;;;;6.76;100.00;162332.28;5032753;28;20037;-54
2022/04/12 06:10:52;;;;;;;11.88;10.70;;;;;;;6.83;100.00;162351.13;5031469;28;20025;-54
2022/04/12 06:13:18;;;;;;;9.75;8.18;;;;;;;6.89;100.00;162367.28;5033238;28;20024;-54
2022/04/12 06:15:43;;;;;;;18.50;11.23;;;;;;;6.82;100.00;162348.41;5033358;28;20044;-54
2022/04/12 06:18:10;;;;;;;9.32;8.38;;;;;;;6.91;100.00;162371.34;5031079;28;20509;-54
2022/04/12 06:20:36;;;;;;;10.32;9.30;;;;;;;6.91;100.00;162372.66;5033134;28;20031;-55
2022/04/12 06:23:01;;;;;;;8.82;7.47;;;;;;;7.15;100.00;162434.63;5031442;28;20037;-54
2022/04/12 06:25:26;;;;;;;12.02;8.70;;;;;;;7.35;100.00;162485.78;5032323;28;20037;-54
2022/04/12 06:27:52;;;;;;;11.88;8.63;;;;;;;7.41;100.00;162503.31;5031260;28;20400;-54
2022/04/12 06:30:25;;;;;;;9.77;8.88;;;;;;;7.59;100.00;162550.47;5031111;28;20025;-54
2022/04/12 06:32:51;;;;;;;17.50;8.93;;;;;;;7.81;100.00;162607.06;5030887;28;20123;-55
2022/04/12 06:35:17;;;;;;;9.77;8.88;;;;;;;7.91;100.00;162634.00;5032486;28;20155;-55
2022/04/12 06:37:45;;;;;;;14.38;10.20;;;;;;;8.03;100.00;162663.63;5031207;28;20033;-54
2022/04/12 06:40:12;;;;;;;10.57;8.40;;;;;;;8.15;100.00;162696.00;5032584;28;20025;-54
2022/04/12 06:42:37;;;;;;;15.57;10.07;;;;;;;8.31;100.00;162736.41;5031093;28;20128;-54
2022/04/12 06:45:04;;;;;;;13.25;7.70;;;;;;;8.47;100.00;162779.59;5032507;28;20195;-54
2022/04/12 06:47:29;;;;;;;11.20;8.80;;;;;;;8.59;100.00;162810.59;5029932;28;20046;-54
2022/04/12 06:49:55;;;;;;;9.57;8.25;;;;;;;8.65;100.00;162825.44;5032454;28;20479;-54
2022/04/12 06:52:22;;;;;;;9.23;8.30;;;;;;;8.80;100.00;162865.91;5030720;28;20045;-54
2022/04/12 06:54:48;;;;;;;15.20;9.60;;;;;;;8.95;100.00;162903.66;5032009;28;20021;-55
2022/04/12 06:57:14;;;;;;;13.50;10.43;;;;;;;9.05;100.00;162930.59;5030645;28;20041;-55
2022/04/12 06:59:40;;;;;;;14.95;9.63;;;;;;;9.15;100.00;162957.56;5032069;28;20025;-54
2022/04/12 07:02:05;;;;;;;11.48;9.82;;;;;;;9.36;100.00;163011.50;5030705;28;20041;-55
2022/04/12 07:04:31;;;;;;;13.98;9.32;;;;;;;9.44;100.00;163031.75;5031924;28;20385;-54
2022/04/12 07:06:57;;;;;;;10.98;8.40;;;;;;;9.64;100.00;163084.38;5030409;28;20048;-54
2022/04/12 07:09:27;;;;;;;11.05;7.43;;;;;;;9.71;100.00;163103.25;5029661;28;20029;-54
2022/04/12 07:11:54;;;;;;;11.20;8.13;;;;;;;9.86;100.00;163141.03;5025643;28;20058;-55
2022/04/12 07:14:20;;;;;;;9.38;7.47;;;;;;;10.27;100.00;163248.97;5026049;28;20108;-54
2022/04/12 07:16:45;;;;;;;8.32;7.03;;;;;;;10.67;100.00;163354.31;5029169;28;20125;-55
2022/04/12 07:19:11;;;;;;;10.77;8.18;;;;;;;11.08;100.00;163460.97;5029771;28;20021;-55
2022/04/12 07:21:36;;;;;;;13.02;8.57;;;;;;;11.30;100.00;163519.00;5029478;28;20033;-55
2022/04/12 07:24:03;;;;;;;8.82;7.80;;;;;;;11.61;100.00;163598.72;5031627;28;20526;-54
2022/04/12 07:26:29;;;;;;;9.82;6.50;;;;;;;11.92;100.00;163681.09;5029731;28;20037;-55
2022/04/12 07:28:55;;;;;;;11.00;7.68;;;;;;;12.34;100.00;163791.91;5030917;28;20405;-54
2022/04/12 07:31:20;;;;;;;14.25;7.57;;;;;;;12.41;100.00;163808.13;5029944;28;20038;-55
2022/04/12 07:33:45;;;;;;;12.43;6.95;;;;;;;12.31;100.00;163783.84;5031076;28;20036;-55
2022/04/12 07:36:11;;;;;;;10.35;8.02;;;;;;;12.57;100.00;163850.03;5029876;28;20044;-55
2022/04/12 07:38:36;;;;;;;12.70;8.85;;;;;;;13.47;100.00;164086.66;5031340;28;20021;-54
2022/04/12 07:41:02;;;;;;;10.52;8.35;;;;;;;14.31;100.00;164305.75;5029701;28;20037;-55
2022/04/12 07:43:27;;;;;;;11.95;7.93;;;;;;;14.37;100.00;164323.31;5031353;28;20035;-54
2022/04/12 07:45:53;;;;;;;9.68;7.18;;;;;;;14.32;100.00;164308.47;5029996;28;20051;-54
2022/04/12 07:48:18;;;;;;;19.90;11.10;;;;;;;14.62;100.00;164386.94;5030575;28;20083;-55
2022/04/12 07:50:44;;;;;;;9.30;7.25;;;;;;;14.99;100.00;164485.75;5029969;28;20033;-54
2022/04/12 07:53:09;;;;;;;10.43;8.25;;;;;;;15.13;100.00;164522.31;5031373;28;20021;-54
2022/04/12 07:55:34;;;;;;;10.35;7.97;;;;;;;15.69;100.00;164668.50;5030370;28;20030;-55
2022/04/12 07:58:00;;;;;;;8.05;6.72;;;;;;;16.50;100.00;164882.53;5029836;28;20086;-55
2022/04/12 08:00:25;;;;;;;8.52;7.13;;;;;;;16.65;100.00;164920.44;5030747;28;20053;-55
2022/04/12 08:02:50;;;;;;;8.43;6.70;;;;;;;16.84;100.00;164970.56;5029517;28;20162;-54
2022/04/12 08:05:16;;;;;;;7.65;6.75;;;;;;;16.90;100.00;164985.50;5031054;28;20448;-55
2022/04/12 08:07:47;;;;;;;11.32;8.20;;;;;;;17.35;100.00;165104.78;5029636;28;20114;-55
2022/04/12 08:10:17;;;;;;;7.40;6.30;;;;;;;17.65;100.00;165182.06;5031096;28;20021;-55
2022/04/12 08:12:44;;;;;;;9.40;6.28;;;;;;;17.90;100.00;165249.81;5029835;28;20042;-55
2022/04/12 08:15:11;;;;;;;7.70;6.15;;;;;;;18.19;100.00;165324.44;5031159;28;20017;-55
2022/04/12 08:17:36;;;;;;;8.20;6.82;;;;;;;18.47;100.00;165399.00;5028991;28;20047;-55
2022/04/12 08:20:03;;;;;;;9.57;6.32;;;;;;;18.41;100.00;165381.38;5031380;28;20146;-55
2022/04/12 08:22:28;;;;;;;7.70;5.88;;;;;;;18.62;100.00;165438.34;5029261;28;20033;-55
2022/04/12 08:24:54;;;;;;;10.60;6.88;;;;;;;18.58;100.00;165427.47;5033197;28;20033;-55
2022/04/12 08:27:19;;;;;;;14.38;7.68;;;;;;;18.70;100.00;165460.03;5030265;28;20049;-56
2022/04/12 08:29:46;;;;;;;8.38;7.50;;;;;;;18.56;100.00;165422.06;5033303;28;20026;-55
2022/04/12 08:32:11;;;;;;;7.20;6.07;;;;;;;18.73;100.00;165466.81;5032882;28;20045;-55
2022/04/12 08:34:36;;;;;;;9.77;7.40;;;;;;;18.82;100.00;165489.84;5034838;28;20048;-55
2022/04/12 08:37:02;;;;;;;8.18;7.10;;;;;;;18.95;100.00;165523.81;5033672;28;20041;-55
2022/04/12 08:39:28;;;;;;;7.80;6.55;;;;;;;18.65;99.71;165446.44;5033702;28;20034;-55
2022/04/12 08:41:57;;;;;;;11.48;6.15;;;;;;;18.68;100.00;165454.59;5033424;28;20038;-55
2022/04/12 08:44:24;;;;;;;8.55;6.85;;;;;;;18.70;100.00;165458.66;5034864;28;20025;-55
2022/04/12 08:46:49;;;;;;;15.15;5.85;;;;;;;18.76;100.00;165473.59;5032812;28;20039;-55
2022/04/12 08:49:15;;;;;;;8.23;6.43;;;;;;;18.94;100.00;165521.09;5034477;28;20472;-55
2022/04/12 08:51:41;;;;;;;9.77;6.55;;;;;;;18.73;100.00;165465.47;5033369;28;20091;-55
2022/04/12 08:54:08;;;;;;;8.90;6.75;;;;;;;18.61;100.00;165435.63;5034073;28;20104;-55
2022/04/12 08:56:33;;;;;;;11.15;6.03;;;;;;;18.51;100.00;165408.47;5032914;28;20637;-55
2022/04/12 08:58:59;;;;;;;10.10;6.75;;;;;;;18.83;100.00;165493.97;5034610;28;20025;-55
2022/04/12 09:01:24;;;;;;;9.52;7.38;;;;;;;19.05;98.27;165549.59;5032339;28;20041;-55
2022/04/12 09:03:50;;;;;;;8.02;7.20;;;;;;;19.09;99.37;165560.47;5034471;28;20049;-55
2022/04/12 09:06:15;;;;;;;14.05;7.47;;;;;;;19.12;99.46;165568.59;5032860;28;20041;-55
2022/04/12 09:08:41;;;;;;;7.47;5.50;;;;;;;19.38;99.37;165636.44;5033802;28;20381;-55
2022/04/12 09:11:07;;;;;;;9.25;6.35;;;;;;;19.09;98.56;165561.81;5033034;28;20045;-55
2022/04/12 09:13:35;;;;;;;9.25;6.38;;;;;;;19.10;100.00;165564.53;5033955;28;20032;-55
2022/04/12 09:16:00;;;;;;;10.02;5.78;;;;;;;19.58;99.67;165689.34;5032513;28;20037;-55
2022/04/12 09:18:38;;;;;;;6.90;5.75;;;;;;;19.96;98.88;165789.78;5030563;28;20029;-55
2022/04/12 09:21:10;;;;;;;6.87;5.73;;;;;;;20.34;94.02;165888.88;5032602;28;20038;-55
2022/04/12 09:23:36;;;;;;;5.13;4.15;;;;;;;20.55;98.41;165944.56;5033330;28;20075;-55
2022/04/12 09:26:01;;;;;;;8.60;4.70;;;;;;;20.24;88.68;165864.44;5032083;28;20041;-55
2022/04/12 09:28:38;;;;;;;7.57;4.82;;;;;;;20.32;84.88;165883.44;5033087;28;20065;-55
2022/04/12 09:31:14;;;;;;;7.85;4.38;;;;;;;19.94;89.28;165785.72;5032382;28;20497;-55
2022/04/12 09:33:40;;;;;;;13.55;5.78;;;;;;;20.49;91.40;165929.63;5034194;28;20045;-55
2022/04/12 09:36:06;;;;;;;6.93;5.45;;;;;;;19.69;84.17;165719.19;5031836;28;20132;-55
2022/04/12 09:38:33;;;;;;;8.65;5.20;;;;;;;19.49;86.90;165666.25;5033234;28;20029;-55
2022/04/12 09:41:17;;;;;;;11.23;4.95;;;;;;;19.71;85.38;165723.25;5032333;28;20033;-55
2022/04/12 09:44:07;;;;;;;9.10;5.43;;;;;;;19.26;87.46;165606.56;5033877;28;20075;-55
2022/04/12 09:46:34;;;;;;;7.28;4.78;;;;;;;19.96;87.95;165791.16;5031823;28;20124;-55
2022/04/12 09:49:00;;;;;;;8.85;5.72;;;;;;;19.63;85.46;165702.91;5033543;28;20500;-55
2022/04/12 09:51:25;;;;;;;15.55;5.60;;;;;;;19.31;84.93;165618.78;5032172;28;20037;-55
2022/04/12 09:53:51;;;;;;;9.07;5.60;;;;;;;19.09;86.36;165560.47;5033168;28;20037;-55
2022/04/12 09:56:19;;;;;;;9.98;5.70;;;;;;;19.75;91.23;165734.13;5031842;28;20034;-55
2022/04/12 09:58:47;;;;;;;6.40;5.22;;;;;;;19.15;87.36;165576.75;5033470;28;20025;-55
2022/04/12 10:01:13;;;;;;;7.60;5.95;;;;;;;19.85;93.23;165761.28;5031653;28;20046;-55
2022/04/12 10:03:39;;;;;;;9.88;6.28;;;;;;;20.25;86.89;165867.16;5033209;28;20025;-55
2022/04/12 10:06:06;;;;;;;9.38;5.82;;;;;;;20.09;85.60;165825.09;5032037;28;20036;-55
2022/04/12 10:08:34;;;;;;;8.98;5.72;;;;;;;19.86;85.94;165762.66;5032583;28;20563;-55
2022/04/12 10:10:59;;;;;;;6.78;6.00;;;;;;;20.73;88.19;165992.13;5031806;28;20060;-55
2022/04/12 10:13:26;;;;;;;7.75;6.88;;;;;;;20.97;83.15;166054.53;5033049;28;20456;-55
2022/04/12 10:15:52;;;;;;;6.90;5.63;;;;;;;21.08;85.01;166084.44;5029413;28;20021;-55
2022/04/12 10:18:20;;;;;;;9.82;6.05;;;;;;;20.98;84.82;166057.25;5030998;28;20021;-55
2022/04/12 10:20:45;;;;;;;12.48;6.57;;;;;;;20.19;81.61;165850.88;5031397;28;20026;-55
2022/04/12 10:23:12;;;;;;;8.13;5.93;;;;;;;20.52;85.43;165936.41;5032497;28;20025;-55
2022/04/12 10:25:37;;;;;;;9.77;5.00;;;;;;;20.76;83.26;166001.63;5030590;28;20469;-55
2022/04/12 10:28:04;;;;;;;6.72;5.68;;;;;;;20.96;83.57;166051.88;5020113;28;20061;-55
2022/04/12 10:30:31;;;;;;;10.50;6.82;;;;;;;21.27;93.92;166134.69;5011841;28;20030;-55
2022/04/12 10:33:01;;;;;;;8.13;5.97;;;;;;;21.27;83.71;166133.31;5026916;28;20033;-55
2022/04/12 10:35:27;;;;;;;8.65;6.28;;;;;;;20.45;81.63;165918.72;5031950;28;20172;-55
2022/04/12 10:37:56;;;;;;;13.32;6.38;;;;;;;20.86;93.97;166027.41;5030456;28;20037;-55
2022/04/12 10:40:23;;;;;;;9.30;5.63;;;;;;;21.36;81.99;166159.16;5030924;28;20029;-55
2022/04/12 10:42:49;;;;;;;14.80;7.07;;;;;;;21.12;90.60;166093.94;5029736;28;20508;-55
2022/04/12 10:45:14;;;;;;;9.75;5.43;;;;;;;20.96;88.32;166051.88;5029618;28;20541;-55
2022/04/12 10:47:43;;;;;;;8.20;4.80;;;;;;;20.89;82.25;166034.19;5028775;28;20072;-55
2022/04/12 10:50:13;;;;;;;7.45;5.43;;;;;;;20.82;91.36;166015.19;5032230;28;20079;-59
2022/04/12 10:52:41;;;;;;;8.15;6.38;;;;;;;20.74;90.78;165994.78;5030140;28;20037;-55
2022/04/12 10:55:08;;;;;;;6.25;5.10;;;;;;;21.08;94.90;166084.44;5031794;28;20048;-55
2022/04/12 10:57:34;;;;;;;7.47;6.55;;;;;;;21.37;96.95;166161.81;5030372;28;20065;-55
2022/04/12 11:00:13;;;;;;;10.45;6.20;;;;;;;20.90;83.65;166038.25;5031462;28;20051;-55
2022/04/12 11:02:53;;;;;;;8.75;6.03;;;;;;;21.29;85.86;166138.75;5030247;28;20140;-55
2022/04/12 11:05:37;;;;;;;12.75;6.63;;;;;;;21.53;88.02;166203.94;5031854;28;20026;-55
2022/04/12 11:08:39;;;;;;;7.22;5.32;;;;;;;22.32;93.61;166410.47;5029858;28;20413;-55
2022/04/12 11:11:06;;;;;;;6.72;4.88;;;;;;;22.61;89.99;166488.00;5030456;28;20033;-55
2022/04/12 11:13:32;;;;;;;8.88;7.00;;;;;;;21.97;82.45;166318.09;5031519;28;20029;-55
2022/04/12 11:16:09;;;;;;;15.70;6.53;;;;;;;22.06;88.98;166341.19;5029857;28;20040;-55